sensor_id;sensor_type;location;lat;lon;timestamp;pressure;altitude;pressure_sealevel;temperature;humidity
26865;BME280;40618;51.166;10.322;2024-01-30T00:01:35;98700.72;;;1.89;76.79
26865;BME280;40618;51.166;10.322;2024-01-30T00:04:01;98699.88;;;1.90;76.51
26865;BME280;40618;51.166;10.322;2024-01-30T00:06:27;98701.59;;;1.91;76.74
26865;BME280;40618;51.166;10.322;2024-01-30T00:08:53;98699.88;;;1.90;76.54
26865;BME280;40618;51.166;10.322;2024-01-30T00:11:19;98701.59;;;1.91;77.05
26865;BME280;40618;51.166;10.322;2024-01-30T00:13:44;98705.84;;;1.91;77.07
26865;BME280;40618;51.166;10.322;2024-01-30T00:16:20;98701.59;;;1.91;76.95
26865;BME280;40618;51.166;10.322;2024-01-30T00:18:47;98701.50;;;1.86;77.33
26865;BME280;40618;51.166;10.322;2024-01-30T00:21:13;98701.28;;;1.79;76.78
26865;BME280;40618;51.166;10.322;2024-01-30T00:23:39;98705.50;;;1.77;76.67
26865;BME280;40618;51.166;10.322;2024-01-30T00:26:05;98697.03;;;1.78;77.58
26865;BME280;40618;51.166;10.322;2024-01-30T00:28:31;98701.22;;;1.76;77.30
26865;BME280;40618;51.166;10.322;2024-01-30T00:30:56;98705.50;;;1.77;77.43
26865;BME280;40618;51.166;10.322;2024-01-30T00:33:22;98701.25;;;1.77;77.50
26865;BME280;40618;51.166;10.322;2024-01-30T00:35:47;98692.78;;;1.78;77.36
26865;BME280;40618;51.166;10.322;2024-01-30T00:38:13;98704.88;;;1.85;77.73
26865;BME280;40618;51.166;10.322;2024-01-30T00:40:38;98693.03;;;1.89;77.66
26865;BME280;40618;51.166;10.322;2024-01-30T00:43:05;98692.97;;;1.86;76.95
26865;BME280;40618;51.166;10.322;2024-01-30T00:45:31;98694.63;;;1.84;77.08
26865;BME280;40618;51.166;10.322;2024-01-30T00:47:56;98698.03;;;1.84;77.36
26865;BME280;40618;51.166;10.322;2024-01-30T00:50:22;98693.81;;;1.86;77.31
26865;BME280;40618;51.166;10.322;2024-01-30T00:52:48;98699.88;;;1.90;77.24
26865;BME280;40618;51.166;10.322;2024-01-30T00:55:13;98703.41;;;1.95;77.73
26865;BME280;40618;51.166;10.322;2024-01-30T00:57:39;98699.13;;;1.94;77.66
26865;BME280;40618;51.166;10.322;2024-01-30T01:00:06;98694.78;;;1.90;77.87
26865;BME280;40618;51.166;10.322;2024-01-30T01:02:36;98698.16;;;1.89;77.07
26865;BME280;40618;51.166;10.322;2024-01-30T01:05:02;98689.56;;;1.87;77.58
26865;BME280;40618;51.166;10.322;2024-01-30T01:07:28;98692.16;;;1.89;77.79
26865;BME280;40618;51.166;10.322;2024-01-30T01:09:54;98685.34;;;1.88;77.16
26865;BME280;40618;51.166;10.322;2024-01-30T01:12:19;98686.13;;;1.85;77.84
26865;BME280;40618;51.166;10.322;2024-01-30T01:14:45;98686.84;;;1.79;77.36
26865;BME280;40618;51.166;10.322;2024-01-30T01:17:11;98685.88;;;1.74;77.58
26865;BME280;40618;51.166;10.322;2024-01-30T01:19:37;98688.34;;;1.71;77.88
26865;BME280;40618;51.166;10.322;2024-01-30T01:22:03;98687.41;;;1.67;77.79
26865;BME280;40618;51.166;10.322;2024-01-30T01:24:31;98684.03;;;1.68;77.94
26865;BME280;40618;51.166;10.322;2024-01-30T01:26:58;98688.22;;;1.66;78.01
26865;BME280;40618;51.166;10.322;2024-01-30T01:29:24;98678.88;;;1.67;78.00
26865;BME280;40618;51.166;10.322;2024-01-30T01:31:56;98681.34;;;1.64;77.20
26865;BME280;40618;51.166;10.322;2024-01-30T01:34:22;98686.44;;;1.64;77.73
26865;BME280;40618;51.166;10.322;2024-01-30T01:36:51;98681.28;;;1.61;77.50
26865;BME280;40618;51.166;10.322;2024-01-30T01:39:20;98687.19;;;1.60;78.09
26865;BME280;40618;51.166;10.322;2024-01-30T01:41:48;98688.91;;;1.59;78.15
26865;BME280;40618;51.166;10.322;2024-01-30T01:44:13;98687.13;;;1.57;77.38
26865;BME280;40618;51.166;10.322;2024-01-30T01:46:39;98678.50;;;1.53;77.88
26865;BME280;40618;51.166;10.322;2024-01-30T01:49:05;98676.66;;;1.47;77.51
26865;BME280;40618;51.166;10.322;2024-01-30T01:51:34;98669.00;;;1.47;78.14
26865;BME280;40618;51.166;10.322;2024-01-30T01:54:04;98669.91;;;1.48;77.99
26865;BME280;40618;51.166;10.322;2024-01-30T01:56:31;98670.84;;;1.53;77.56
26865;BME280;40618;51.166;10.322;2024-01-30T01:59:06;98674.22;;;1.50;78.10
26865;BME280;40618;51.166;10.322;2024-01-30T02:01:33;98673.22;;;1.45;78.00
26865;BME280;40618;51.166;10.322;2024-01-30T02:04:01;98673.09;;;1.41;77.90
26865;BME280;40618;51.166;10.322;2024-01-30T02:06:27;98668.69;;;1.35;77.45
26865;BME280;40618;51.166;10.322;2024-01-30T02:08:54;98677.22;;;1.35;77.49
26865;BME280;40618;51.166;10.322;2024-01-30T02:11:20;98672.16;;;1.37;78.30
26865;BME280;40618;51.166;10.322;2024-01-30T02:13:47;98672.13;;;1.35;78.34
26865;BME280;40618;51.166;10.322;2024-01-30T02:16:13;98671.25;;;1.35;77.54
26865;BME280;40618;51.166;10.322;2024-01-30T02:18:39;98669.47;;;1.32;77.56
26865;BME280;40618;51.166;10.322;2024-01-30T02:21:12;98671.94;;;1.29;77.71
26865;BME280;40618;51.166;10.322;2024-01-30T02:23:37;98680.47;;;1.30;78.04
26865;BME280;40618;51.166;10.322;2024-01-30T02:26:06;98678.72;;;1.27;78.25
26865;BME280;40618;51.166;10.322;2024-01-30T02:28:31;98666.03;;;1.30;78.24
26865;BME280;40618;51.166;10.322;2024-01-30T02:30:57;98666.09;;;1.33;78.18
26865;BME280;40618;51.166;10.322;2024-01-30T02:33:22;98672.13;;;1.35;77.67
26865;BME280;40618;51.166;10.322;2024-01-30T02:35:48;98665.16;;;1.30;78.56
26865;BME280;40618;51.166;10.322;2024-01-30T02:38:15;98661.72;;;1.28;78.17
26865;BME280;40618;51.166;10.322;2024-01-30T02:40:42;98659.13;;;1.26;77.76
26865;BME280;40618;51.166;10.322;2024-01-30T02:43:07;98667.66;;;1.28;78.52
26865;BME280;40618;51.166;10.322;2024-01-30T02:45:33;98650.75;;;1.32;77.69
26865;BME280;40618;51.166;10.322;2024-01-30T02:47:58;98646.50;;;1.32;78.77
26865;BME280;40618;51.166;10.322;2024-01-30T02:50:24;98647.50;;;1.38;78.75
26865;BME280;40618;51.166;10.322;2024-01-30T02:52:49;98656.06;;;1.40;78.16
26865;BME280;40618;51.166;10.322;2024-01-30T02:55:15;98656.06;;;1.40;78.14
26865;BME280;40618;51.166;10.322;2024-01-30T02:57:43;98643.03;;;1.29;78.15
26865;BME280;40618;51.166;10.322;2024-01-30T03:00:09;98649.66;;;1.22;78.23
26865;BME280;40618;51.166;10.322;2024-01-30T03:02:36;98648.00;;;1.24;78.87
26865;BME280;40618;51.166;10.322;2024-01-30T03:05:02;98645.59;;;1.29;77.90
26865;BME280;40618;51.166;10.322;2024-01-30T03:07:31;98641.19;;;1.23;78.44
26865;BME280;40618;51.166;10.322;2024-01-30T03:09:58;98649.53;;;1.17;78.30
26865;BME280;40618;51.166;10.322;2024-01-30T03:12:23;98645.09;;;1.10;78.24
26865;BME280;40618;51.166;10.322;2024-01-30T03:14:49;98646.59;;;1.04;78.47
26865;BME280;40618;51.166;10.322;2024-01-30T03:17:14;98636.50;;;1.07;77.99
26865;BME280;40618;51.166;10.322;2024-01-30T03:19:40;98635.88;;;1.15;78.50
26865;BME280;40618;51.166;10.322;2024-01-30T03:22:06;98629.09;;;1.17;78.97
26865;BME280;40618;51.166;10.322;2024-01-30T03:24:31;98630.00;;;1.18;78.23
26865;BME280;40618;51.166;10.322;2024-01-30T03:26:57;98625.66;;;1.15;78.41
26865;BME280;40618;51.166;10.322;2024-01-30T03:29:23;98629.81;;;1.12;78.02
26865;BME280;40618;51.166;10.322;2024-01-30T03:31:48;98628.78;;;1.05;77.94
26865;BME280;40618;51.166;10.322;2024-01-30T03:34:14;98627.09;;;1.04;78.12
26865;BME280;40618;51.166;10.322;2024-01-30T03:36:39;98622.56;;;0.95;77.85
26865;BME280;40618;51.166;10.322;2024-01-30T03:39:05;98621.50;;;0.87;77.97
26865;BME280;40618;51.166;10.322;2024-01-30T03:41:31;98627.34;;;0.83;78.54
26865;BME280;40618;51.166;10.322;2024-01-30T03:43:57;98628.22;;;0.83;78.64
26865;BME280;40618;51.166;10.322;2024-01-30T03:46:23;98620.66;;;0.87;78.33
26865;BME280;40618;51.166;10.322;2024-01-30T03:48:49;98619.84;;;0.88;78.99
26865;BME280;40618;51.166;10.322;2024-01-30T03:51:15;98627.50;;;0.88;78.40
26865;BME280;40618;51.166;10.322;2024-01-30T03:53:41;98617.16;;;0.83;78.59
26865;BME280;40618;51.166;10.322;2024-01-30T03:56:08;98629.94;;;0.84;78.93
26865;BME280;40618;51.166;10.322;2024-01-30T03:58:34;98627.50;;;0.88;78.24
26865;BME280;40618;51.166;10.322;2024-01-30T04:01:00;98622.44;;;0.89;78.49
26865;BME280;40618;51.166;10.322;2024-01-30T04:03:25;98614.81;;;0.91;78.42
26865;BME280;40618;51.166;10.322;2024-01-30T04:05:52;98614.84;;;0.92;78.92
26865;BME280;40618;51.166;10.322;2024-01-30T04:08:18;98625.19;;;0.98;78.91
26865;BME280;40618;51.166;10.322;2024-01-30T04:10:44;98625.28;;;1.00;78.84
26865;BME280;40618;51.166;10.322;2024-01-30T04:13:10;98626.09;;;0.99;78.86
26865;BME280;40618;51.166;10.322;2024-01-30T04:15:36;98620.06;;;0.97;78.58
26865;BME280;40618;51.166;10.322;2024-01-30T04:18:02;98617.47;;;0.95;78.63
26865;BME280;40618;51.166;10.322;2024-01-30T04:20:27;98614.88;;;0.94;78.66
26865;BME280;40618;51.166;10.322;2024-01-30T04:22:54;98616.44;;;0.89;78.24
26865;BME280;40618;51.166;10.322;2024-01-30T04:25:19;98611.06;;;0.78;78.52
26865;BME280;40618;51.166;10.322;2024-01-30T04:27:46;98619.50;;;0.75;78.34
26865;BME280;40618;51.166;10.322;2024-01-30T04:30:11;98613.53;;;0.75;78.92
26865;BME280;40618;51.166;10.322;2024-01-30T04:32:37;98615.19;;;0.73;78.94
26865;BME280;40618;51.166;10.322;2024-01-30T04:35:03;98613.44;;;0.72;78.60
26865;BME280;40618;51.166;10.322;2024-01-30T04:37:29;98617.63;;;0.70;79.03
26865;BME280;40618;51.166;10.322;2024-01-30T04:39:54;98609.94;;;0.68;78.50
26865;BME280;40618;51.166;10.322;2024-01-30T04:42:20;98604.88;;;0.70;79.27
26865;BME280;40618;51.166;10.322;2024-01-30T04:44:46;98607.44;;;0.70;78.51
26865;BME280;40618;51.166;10.322;2024-01-30T04:47:11;98605.72;;;0.69;79.04
26865;BME280;40618;51.166;10.322;2024-01-30T04:49:40;98616.81;;;0.71;79.07
26865;BME280;40618;51.166;10.322;2024-01-30T04:52:07;98603.31;;;0.75;78.88
26865;BME280;40618;51.166;10.322;2024-01-30T04:54:34;98605.88;;;0.75;79.27
26865;BME280;40618;51.166;10.322;2024-01-30T04:57:00;98607.69;;;0.79;78.93
26865;BME280;40618;51.166;10.322;2024-01-30T04:59:27;98606.09;;;0.82;78.68
26865;BME280;40618;51.166;10.322;2024-01-30T05:01:53;98606.94;;;0.83;78.99
26865;BME280;40618;51.166;10.322;2024-01-30T05:04:19;98602.63;;;0.80;78.47
26865;BME280;40618;51.166;10.322;2024-01-30T05:06:44;98611.19;;;0.82;79.24
26865;BME280;40618;51.166;10.322;2024-01-30T05:09:10;98609.56;;;0.86;78.50
26865;BME280;40618;51.166;10.322;2024-01-30T05:11:40;98617.28;;;0.88;78.74
26865;BME280;40618;51.166;10.322;2024-01-30T05:14:07;98611.28;;;0.86;78.39
26865;BME280;40618;51.166;10.322;2024-01-30T05:16:37;98623.13;;;0.83;78.89
26865;BME280;40618;51.166;10.322;2024-01-30T05:19:02;98623.94;;;0.82;78.52
26865;BME280;40618;51.166;10.322;2024-01-30T05:21:28;98621.44;;;0.84;78.66
26865;BME280;40618;51.166;10.322;2024-01-30T05:23:53;98624.03;;;0.86;79.14
26865;BME280;40618;51.166;10.322;2024-01-30T05:26:19;98625.06;;;0.92;79.44
26865;BME280;40618;51.166;10.322;2024-01-30T05:28:44;98625.19;;;0.98;79.15
26865;BME280;40618;51.166;10.322;2024-01-30T05:31:10;98624.50;;;1.03;79.57
26865;BME280;40618;51.166;10.322;2024-01-30T05:33:36;98626.38;;;1.10;79.05
26865;BME280;40618;51.166;10.322;2024-01-30T05:36:02;98619.00;;;1.21;78.85
26865;BME280;40618;51.166;10.322;2024-01-30T05:38:28;98613.25;;;1.29;79.21
26865;BME280;40618;51.166;10.322;2024-01-30T05:40:54;98615.94;;;1.34;78.95
26865;BME280;40618;51.166;10.322;2024-01-30T05:43:20;98616.84;;;1.36;79.28
26865;BME280;40618;51.166;10.322;2024-01-30T05:45:45;98629.66;;;1.39;79.58
26865;BME280;40618;51.166;10.322;2024-01-30T05:48:11;98622.13;;;1.42;79.41
26865;BME280;40618;51.166;10.322;2024-01-30T05:50:37;98625.50;;;1.43;79.41
26865;BME280;40618;51.166;10.322;2024-01-30T05:53:02;98627.25;;;1.44;79.12
26865;BME280;40618;51.166;10.322;2024-01-30T05:55:28;98625.50;;;1.43;79.19
26865;BME280;40618;51.166;10.322;2024-01-30T05:57:53;98618.69;;;1.42;79.36
26865;BME280;40618;51.166;10.322;2024-01-30T06:00:19;98614.50;;;1.44;79.34
26865;BME280;40618;51.166;10.322;2024-01-30T06:02:44;98625.56;;;1.44;79.38
26865;BME280;40618;51.166;10.322;2024-01-30T06:05:10;98613.72;;;1.46;79.48
26865;BME280;40618;51.166;10.322;2024-01-30T06:07:36;98628.09;;;1.44;78.76
26865;BME280;40618;51.166;10.322;2024-01-30T06:10:01;98621.19;;;1.40;79.32
26865;BME280;40618;51.166;10.322;2024-01-30T06:12:28;98625.31;;;1.35;78.73
26865;BME280;40618;51.166;10.322;2024-01-30T06:14:54;98626.19;;;1.35;79.49
26865;BME280;40618;51.166;10.322;2024-01-30T06:17:22;98619.31;;;1.33;79.10
26865;BME280;40618;51.166;10.322;2024-01-30T06:19:48;98624.31;;;1.30;79.32
26865;BME280;40618;51.166;10.322;2024-01-30T06:22:14;98625.03;;;1.24;78.92
26865;BME280;40618;51.166;10.322;2024-01-30T06:24:40;98618.22;;;1.23;79.13
26865;BME280;40618;51.166;10.322;2024-01-30T06:27:06;98621.66;;;1.25;79.05
26865;BME280;40618;51.166;10.322;2024-01-30T06:29:31;98615.78;;;1.28;79.22
26865;BME280;40618;51.166;10.322;2024-01-30T06:31:57;98619.22;;;1.30;78.87
26865;BME280;40618;51.166;10.322;2024-01-30T06:34:23;98611.63;;;1.31;79.01
26865;BME280;40618;51.166;10.322;2024-01-30T06:36:48;98614.09;;;1.28;79.58
26865;BME280;40618;51.166;10.322;2024-01-30T06:39:14;98614.94;;;1.27;79.57
26865;BME280;40618;51.166;10.322;2024-01-30T06:41:39;98607.31;;;1.29;79.13
26865;BME280;40618;51.166;10.322;2024-01-30T06:44:05;98604.84;;;1.33;78.81
26865;BME280;40618;51.166;10.322;2024-01-30T06:46:33;98608.31;;;1.35;78.91
26865;BME280;40618;51.166;10.322;2024-01-30T06:48:59;98616.81;;;1.34;78.80
26865;BME280;40618;51.166;10.322;2024-01-30T06:51:25;98618.44;;;1.32;79.40
26865;BME280;40618;51.166;10.322;2024-01-30T06:53:50;98611.50;;;1.27;79.39
26865;BME280;40618;51.166;10.322;2024-01-30T06:56:16;98613.03;;;1.20;78.94
26865;BME280;40618;51.166;10.322;2024-01-30T06:58:49;98607.91;;;1.20;79.33
26865;BME280;40618;51.166;10.322;2024-01-30T07:01:15;98615.03;;;1.32;79.81
26865;BME280;40618;51.166;10.322;2024-01-30T07:03:42;98612.56;;;1.35;78.92
26865;BME280;40618;51.166;10.322;2024-01-30T07:06:08;98614.31;;;1.38;79.00
26865;BME280;40618;51.166;10.322;2024-01-30T07:08:36;98615.25;;;1.40;79.75
26865;BME280;40618;51.166;10.322;2024-01-30T07:11:02;98610.97;;;1.40;78.86
26865;BME280;40618;51.166;10.322;2024-01-30T07:13:28;98611.09;;;1.45;79.55
26865;BME280;40618;51.166;10.322;2024-01-30T07:15:54;98609.44;;;1.47;79.73
26865;BME280;40618;51.166;10.322;2024-01-30T07:18:19;98615.38;;;1.46;79.00
26865;BME280;40618;51.166;10.322;2024-01-30T07:20:45;98619.59;;;1.44;79.52
26865;BME280;40618;51.166;10.322;2024-01-30T07:23:13;98615.28;;;1.41;79.01
26865;BME280;40618;51.166;10.322;2024-01-30T07:25:41;98622.03;;;1.41;79.56
26865;BME280;40618;51.166;10.322;2024-01-30T07:28:07;98621.28;;;1.45;79.07
26865;BME280;40618;51.166;10.322;2024-01-30T07:30:37;98622.19;;;1.45;78.94
26865;BME280;40618;51.166;10.322;2024-01-30T07:33:03;98614.34;;;1.39;78.86
26865;BME280;40618;51.166;10.322;2024-01-30T07:35:28;98620.94;;;1.31;79.34
26865;BME280;40618;51.166;10.322;2024-01-30T07:37:54;98614.78;;;1.23;78.84
26865;BME280;40618;51.166;10.322;2024-01-30T07:40:20;98619.06;;;1.24;78.92
26865;BME280;40618;51.166;10.322;2024-01-30T07:42:45;98620.88;;;1.28;79.05
26865;BME280;40618;51.166;10.322;2024-01-30T07:45:13;98622.59;;;1.27;78.95
26865;BME280;40618;51.166;10.322;2024-01-30T07:47:38;98619.19;;;1.28;79.11
26865;BME280;40618;51.166;10.322;2024-01-30T07:50:04;98631.06;;;1.26;79.62
26865;BME280;40618;51.166;10.322;2024-01-30T07:52:30;98628.53;;;1.28;79.32
26865;BME280;40618;51.166;10.322;2024-01-30T07:54:56;98625.19;;;1.30;79.04
26865;BME280;40618;51.166;10.322;2024-01-30T07:57:21;98623.53;;;1.32;79.42
26865;BME280;40618;51.166;10.322;2024-01-30T07:59:47;98621.91;;;1.34;79.76
26865;BME280;40618;51.166;10.322;2024-01-30T08:02:13;98617.69;;;1.37;79.95
26865;BME280;40618;51.166;10.322;2024-01-30T08:04:39;98625.41;;;1.38;80.03
26865;BME280;40618;51.166;10.322;2024-01-30T08:07:04;98621.19;;;1.40;79.56
26865;BME280;40618;51.166;10.322;2024-01-30T08:09:30;98616.09;;;1.40;79.60
26865;BME280;40618;51.166;10.322;2024-01-30T08:11:56;98616.09;;;1.40;79.71
26865;BME280;40618;51.166;10.322;2024-01-30T08:14:21;98615.31;;;1.43;79.86
26865;BME280;40618;51.166;10.322;2024-01-30T08:16:47;98616.19;;;1.45;79.84
26865;BME280;40618;51.166;10.322;2024-01-30T08:19:14;98614.50;;;1.44;79.33
26865;BME280;40618;51.166;10.322;2024-01-30T08:21:40;98615.41;;;1.47;79.18
26865;BME280;40618;51.166;10.322;2024-01-30T08:24:07;98614.75;;;1.55;79.92
26865;BME280;40618;51.166;10.322;2024-01-30T08:26:33;98621.66;;;1.59;79.85
26865;BME280;40618;51.166;10.322;2024-01-30T08:28:59;98620.13;;;1.65;79.63
26865;BME280;40618;51.166;10.322;2024-01-30T08:31:25;98628.72;;;1.71;79.88
26865;BME280;40618;51.166;10.322;2024-01-30T08:33:50;98620.41;;;1.78;79.90
26865;BME280;40618;51.166;10.322;2024-01-30T08:36:17;98626.47;;;1.83;79.74
26865;BME280;40618;51.166;10.322;2024-01-30T08:38:42;98626.47;;;1.83;79.89
26865;BME280;40618;51.166;10.322;2024-01-30T08:41:08;98622.31;;;1.86;79.90
26865;BME280;40618;51.166;10.322;2024-01-30T08:43:34;98617.31;;;1.93;79.67
26865;BME280;40618;51.166;10.322;2024-01-30T08:46:00;98623.38;;;1.96;80.18
26865;BME280;40618;51.166;10.322;2024-01-30T08:48:26;98620.03;;;1.99;80.45
26865;BME280;40618;51.166;10.322;2024-01-30T08:50:52;98625.22;;;2.02;79.78
26865;BME280;40618;51.166;10.322;2024-01-30T08:53:18;98615.91;;;2.04;79.53
26865;BME280;40618;51.166;10.322;2024-01-30T08:55:44;98614.34;;;2.11;80.11
26865;BME280;40618;51.166;10.322;2024-01-30T08:58:10;98619.63;;;2.18;80.31
26865;BME280;40618;51.166;10.322;2024-01-30T09:00:36;98610.31;;;2.20;80.38
26865;BME280;40618;51.166;10.322;2024-01-30T09:03:02;98611.22;;;2.24;80.08
26865;BME280;40618;51.166;10.322;2024-01-30T09:05:28;98616.53;;;2.33;79.80
26865;BME280;40618;51.166;10.322;2024-01-30T09:07:54;98618.41;;;2.41;79.54
26865;BME280;40618;51.166;10.322;2024-01-30T09:10:19;98616.91;;;2.50;79.48
26865;BME280;40618;51.166;10.322;2024-01-30T09:12:46;98614.44;;;2.55;79.82
26865;BME280;40618;51.166;10.322;2024-01-30T09:15:12;98617.94;;;2.60;79.62
26865;BME280;40618;51.166;10.322;2024-01-30T09:17:37;98619.75;;;2.64;80.00
26865;BME280;40618;51.166;10.322;2024-01-30T09:20:04;98613.84;;;2.68;79.86
26865;BME280;40618;51.166;10.322;2024-01-30T09:22:30;98613.09;;;2.73;80.23
26865;BME280;40618;51.166;10.322;2024-01-30T09:24:56;98614.03;;;2.78;79.56
26865;BME280;40618;51.166;10.322;2024-01-30T09:27:22;98615.81;;;2.80;79.50
26865;BME280;40618;51.166;10.322;2024-01-30T09:29:48;98617.63;;;2.86;79.93
26865;BME280;40618;51.166;10.322;2024-01-30T09:32:14;98617.69;;;2.91;80.00
26865;BME280;40618;51.166;10.322;2024-01-30T09:34:40;98623.75;;;2.94;79.89
26865;BME280;40618;51.166;10.322;2024-01-30T09:37:06;98622.94;;;2.97;79.52
26865;BME280;40618;51.166;10.322;2024-01-30T09:39:32;98615.31;;;3.00;79.36
26865;BME280;40618;51.166;10.322;2024-01-30T09:42:05;98621.28;;;3.00;80.03
26865;BME280;40618;51.166;10.322;2024-01-30T09:44:56;98623.94;;;3.05;79.72
26865;BME280;40618;51.166;10.322;2024-01-30T09:47:21;98624.00;;;3.08;79.55
26865;BME280;40618;51.166;10.322;2024-01-30T09:49:47;98627.47;;;3.12;79.45
26865;BME280;40618;51.166;10.322;2024-01-30T09:52:14;98633.50;;;3.15;79.76
26865;BME280;40618;51.166;10.322;2024-01-30T09:54:41;98629.31;;;3.19;79.40
26865;BME280;40618;51.166;10.322;2024-01-30T09:57:07;98628.56;;;3.25;79.83
26865;BME280;40618;51.166;10.322;2024-01-30T09:59:33;98627.75;;;3.27;80.08
26865;BME280;40618;51.166;10.322;2024-01-30T10:02:00;98632.13;;;3.33;79.87
26865;BME280;40618;51.166;10.322;2024-01-30T10:04:26;98639.00;;;3.35;79.61
26865;BME280;40618;51.166;10.322;2024-01-30T10:06:51;98636.47;;;3.38;79.84
26865;BME280;40618;51.166;10.322;2024-01-30T10:09:17;98636.56;;;3.43;79.70
26865;BME280;40618;51.166;10.322;2024-01-30T10:11:42;98630.63;;;3.46;79.34
26865;BME280;40618;51.166;10.322;2024-01-30T10:14:08;98640.06;;;3.50;79.61
26865;BME280;40618;51.166;10.322;2024-01-30T10:16:34;98643.56;;;3.53;79.58
26865;BME280;40618;51.166;10.322;2024-01-30T10:19:00;98641.06;;;3.58;79.56
26865;BME280;40618;51.166;10.322;2024-01-30T10:21:26;98634.41;;;3.66;79.74
26865;BME280;40618;51.166;10.322;2024-01-30T10:23:52;98640.44;;;3.71;79.85
26865;BME280;40618;51.166;10.322;2024-01-30T10:26:18;98632.78;;;3.73;78.98
26865;BME280;40618;51.166;10.322;2024-01-30T10:28:44;98637.09;;;3.76;79.41
26865;BME280;40618;51.166;10.322;2024-01-30T10:31:09;98635.44;;;3.79;79.63
26865;BME280;40618;51.166;10.322;2024-01-30T10:33:35;98636.41;;;3.84;79.24
26865;BME280;40618;51.166;10.322;2024-01-30T10:36:02;98632.09;;;3.83;79.77
26865;BME280;40618;51.166;10.322;2024-01-30T10:38:30;98634.66;;;3.83;79.52
26865;BME280;40618;51.166;10.322;2024-01-30T10:40:58;98632.09;;;3.83;79.52
26865;BME280;40618;51.166;10.322;2024-01-30T10:43:32;98632.09;;;3.82;78.99
26865;BME280;40618;51.166;10.322;2024-01-30T10:46:10;98627.81;;;3.84;79.59
26865;BME280;40618;51.166;10.322;2024-01-30T10:48:49;98630.38;;;3.84;78.96
26865;BME280;40618;51.166;10.322;2024-01-30T10:51:19;98616.75;;;3.86;79.00
26865;BME280;40618;51.166;10.322;2024-01-30T10:53:49;98623.66;;;3.90;79.19
26865;BME280;40618;51.166;10.322;2024-01-30T10:56:16;98622.06;;;3.97;79.45
26865;BME280;40618;51.166;10.322;2024-01-30T10:58:42;98617.84;;;3.99;79.15
26865;BME280;40618;51.166;10.322;2024-01-30T11:01:08;98617.84;;;4.01;79.40
26865;BME280;40618;51.166;10.322;2024-01-30T11:03:35;98609.38;;;4.06;79.59
26865;BME280;40618;51.166;10.322;2024-01-30T11:06:02;98611.97;;;4.10;79.15
26865;BME280;40618;51.166;10.322;2024-01-30T11:08:28;98608.59;;;4.12;78.97
26865;BME280;40618;51.166;10.322;2024-01-30T11:10:58;98608.59;;;4.12;78.98
26865;BME280;40618;51.166;10.322;2024-01-30T11:13:29;98601.78;;;4.13;78.99
26865;BME280;40618;51.166;10.322;2024-01-30T11:15:55;98597.53;;;4.15;79.46
26865;BME280;40618;51.166;10.322;2024-01-30T11:18:24;98602.78;;;4.22;79.05
26865;BME280;40618;51.166;10.322;2024-01-30T11:20:50;98582.28;;;4.22;79.05
26865;BME280;40618;51.166;10.322;2024-01-30T11:23:16;98584.00;;;4.25;79.26
26865;BME280;40618;51.166;10.322;2024-01-30T11:25:43;98571.16;;;4.25;78.89
26865;BME280;40618;51.166;10.322;2024-01-30T11:28:16;98578.94;;;4.28;78.97
26865;BME280;40618;51.166;10.322;2024-01-30T11:30:42;98566.16;;;4.34;79.14
26865;BME280;40618;51.166;10.322;2024-01-30T11:33:09;98561.13;;;4.40;79.16
26865;BME280;40618;51.166;10.322;2024-01-30T11:35:45;98564.56;;;4.44;79.17
26865;BME280;40618;51.166;10.322;2024-01-30T11:38:13;98562.06;;;4.47;79.34
26865;BME280;40618;51.166;10.322;2024-01-30T11:40:40;98561.19;;;4.48;79.27
26865;BME280;40618;51.166;10.322;2024-01-30T11:43:07;98557.00;;;4.53;79.09
26865;BME280;40618;51.166;10.322;2024-01-30T11:45:35;98551.94;;;4.60;79.23
26865;BME280;40618;51.166;10.322;2024-01-30T11:48:01;98546.84;;;4.63;79.17
26865;BME280;40618;51.166;10.322;2024-01-30T11:50:33;98541.75;;;4.67;79.04
26865;BME280;40618;51.166;10.322;2024-01-30T11:53:00;98540.09;;;4.69;78.99
26865;BME280;40618;51.166;10.322;2024-01-30T11:55:26;98545.25;;;4.72;78.86
26865;BME280;40618;51.166;10.322;2024-01-30T11:57:55;98533.31;;;4.74;79.02
26865;BME280;40618;51.166;10.322;2024-01-30T12:00:22;98539.31;;;4.80;79.17
26865;BME280;40618;51.166;10.322;2024-01-30T12:02:52;98536.81;;;4.84;79.15
26865;BME280;40618;51.166;10.322;2024-01-30T12:05:23;98533.44;;;4.88;79.22
26865;BME280;40618;51.166;10.322;2024-01-30T12:07:49;98530.03;;;4.91;79.20
26865;BME280;40618;51.166;10.322;2024-01-30T12:10:15;98526.59;;;4.92;78.83
26865;BME280;40618;51.166;10.322;2024-01-30T12:12:44;98536.09;;;4.96;79.03
26865;BME280;40618;51.166;10.322;2024-01-30T12:15:12;98528.41;;;5.01;78.80
26865;BME280;40618;51.166;10.322;2024-01-30T12:17:38;98536.97;;;5.03;79.10
26865;BME280;40618;51.166;10.322;2024-01-30T12:20:09;98532.75;;;5.05;78.69
26865;BME280;40618;51.166;10.322;2024-01-30T12:22:42;98537.03;;;5.04;78.72
26865;BME280;40618;51.166;10.322;2024-01-30T12:25:11;98542.19;;;5.07;78.86
26865;BME280;40618;51.166;10.322;2024-01-30T12:27:49;98537.06;;;5.11;78.69
26865;BME280;40618;51.166;10.322;2024-01-30T12:30:16;98538.78;;;5.10;78.83
26865;BME280;40618;51.166;10.322;2024-01-30T12:32:44;98537.06;;;5.09;78.84
26865;BME280;40618;51.166;10.322;2024-01-30T12:35:12;98529.34;;;5.09;78.65
26865;BME280;40618;51.166;10.322;2024-01-30T12:37:40;98535.34;;;5.09;78.88
26865;BME280;40618;51.166;10.322;2024-01-30T12:40:09;98536.25;;;5.15;78.72
26865;BME280;40618;51.166;10.322;2024-01-30T12:42:36;98535.41;;;5.17;78.86
26865;BME280;40618;51.166;10.322;2024-01-30T12:45:03;98530.28;;;5.19;78.69
26865;BME280;40618;51.166;10.322;2024-01-30T12:47:29;98531.13;;;5.16;78.54
26865;BME280;40618;51.166;10.322;2024-01-30T12:49:55;98529.44;;;5.17;78.57
26865;BME280;40618;51.166;10.322;2024-01-30T12:52:22;98532.03;;;5.20;78.50
26865;BME280;40618;51.166;10.322;2024-01-30T12:54:49;98538.91;;;5.25;78.53
26865;BME280;40618;51.166;10.322;2024-01-30T12:57:15;98533.81;;;5.30;78.56